Time;durP1;ratioP1;P1;durP2;ratioP2;P2;SDS_P1;SDS_P2;PMS_P1;PMS_P2;Temp;Humidity;BMP_temperature;BMP_pressure;BME280_temperature;BME280_humidity;BME280_pressure;Samples;Min_cycle;Max_cycle;Signal;HPM_P1;HPM_P2
2023/08/26 00:00:53;;;;;;;31.00;22.50;;;17.70;99.90;;;;;;5036277;28;20387;-83
2023/08/26 00:03:18;;;;;;;32.92;22.20;;;17.60;99.90;;;;;;5046913;28;20036;-83
2023/08/26 00:05:44;;;;;;;27.58;21.52;;;17.60;99.90;;;;;;5066584;28;20040;-83
2023/08/26 00:08:10;;;;;;;30.00;21.35;;;17.60;99.90;;;;;;5071622;28;20095;-83
2023/08/26 00:10:36;;;;;;;27.42;21.08;;;17.60;99.90;;;;;;5039208;28;20125;-83
2023/08/26 00:13:01;;;;;;;27.00;20.73;;;17.60;99.90;;;;;;5033673;28;20120;-84
2023/08/26 00:15:27;;;;;;;28.15;20.63;;;17.60;99.90;;;;;;5065601;28;20125;-83
2023/08/26 00:17:53;;;;;;;28.15;21.20;;;17.50;99.90;;;;;;5064096;28;20041;-83
2023/08/26 00:20:21;;;;;;;27.00;20.25;;;17.50;99.90;;;;;;5043532;28;20121;-83
2023/08/26 00:22:47;;;;;;;29.95;21.27;;;17.50;99.90;;;;;;5033785;28;20816;-83
2023/08/26 00:25:13;;;;;;;26.50;19.63;;;17.40;99.90;;;;;;5065482;28;20061;-83
2023/08/26 00:27:38;;;;;;;27.52;18.77;;;17.40;99.90;;;;;;5024197;28;20743;-84
2023/08/26 00:30:06;;;;;;;26.40;19.25;;;17.40;99.90;;;;;;5014016;28;20049;-83
2023/08/26 00:32:31;;;;;;;27.73;18.80;;;17.40;99.90;;;;;;5042026;28;20058;-83
2023/08/26 00:34:57;;;;;;;27.20;18.58;;;17.30;99.90;;;;;;5048531;28;20115;-83
2023/08/26 00:37:23;;;;;;;24.42;18.20;;;17.30;99.90;;;;;;5034086;28;20049;-83
2023/08/26 00:39:48;;;;;;;25.10;17.83;;;17.20;99.90;;;;;;5033952;28;20407;-84
2023/08/26 00:42:14;;;;;;;23.63;18.17;;;17.20;99.90;;;;;;5047470;28;20044;-84
2023/08/26 00:44:40;;;;;;;26.00;17.13;;;17.20;99.90;;;;;;5055085;28;20397;-83
2023/08/26 00:47:06;;;;;;;22.13;16.13;;;17.10;99.90;;;;;;5057296;28;20029;-84
2023/08/26 00:49:32;;;;;;;20.35;15.90;;;17.10;99.90;;;;;;5037138;28;20110;-85
2023/08/26 00:51:58;;;;;;;22.05;15.27;;;17.00;99.90;;;;;;5037400;28;20037;-85
2023/08/26 00:54:24;;;;;;;20.08;15.00;;;17.00;99.90;;;;;;5031163;28;20052;-85
2023/08/26 00:56:50;;;;;;;21.00;14.77;;;17.00;99.90;;;;;;5021623;28;20044;-86
2023/08/26 00:59:16;;;;;;;20.13;14.50;;;17.00;99.90;;;;;;5051571;28;20052;-86
2023/08/26 01:01:43;;;;;;;19.45;13.65;;;17.00;99.90;;;;;;5063618;28;20523;-85
2023/08/26 01:04:10;;;;;;;19.73;13.80;;;16.90;99.90;;;;;;5058547;28;20033;-85
2023/08/26 01:06:36;;;;;;;24.38;14.38;;;16.90;99.90;;;;;;5049920;28;20032;-85
2023/08/26 01:09:03;;;;;;;17.13;13.15;;;16.90;99.90;;;;;;5050451;28;20136;-85
2023/08/26 01:11:57;;;;;;;21.33;14.02;;;16.90;99.90;;;;;;5023715;28;20388;-85
2023/08/26 01:14:37;;;;;;;19.73;13.40;;;16.80;99.90;;;;;;5033338;28;20057;-86
2023/08/26 01:17:07;;;;;;;18.33;12.95;;;16.80;99.90;;;;;;5040304;28;20037;-85
2023/08/26 01:19:36;;;;;;;18.52;12.77;;;16.80;99.90;;;;;;5053926;28;20504;-85
2023/08/26 01:22:05;;;;;;;19.98;13.18;;;16.80;99.90;;;;;;5043795;28;20178;-85
2023/08/26 01:24:33;;;;;;;17.27;13.43;;;16.70;99.90;;;;;;5037318;28;20048;-85
2023/08/26 01:26:59;;;;;;;17.15;12.82;;;16.70;99.90;;;;;;5061644;28;20124;-85
2023/08/26 01:29:25;;;;;;;18.40;13.10;;;16.70;99.90;;;;;;5069513;28;20190;-86
2023/08/26 01:32:11;;;;;;;22.90;12.85;;;16.70;99.90;;;;;;5036930;28;20055;-86
2023/08/26 01:34:38;;;;;;;18.90;12.65;;;16.70;99.90;;;;;;5039655;28;20060;-86
2023/08/26 01:37:07;;;;;;;17.27;13.18;;;16.60;99.90;;;;;;5044338;28;20040;-86
2023/08/26 01:39:33;;;;;;;15.88;12.32;;;16.60;99.90;;;;;;5045371;28;20048;-86
2023/08/26 01:42:02;;;;;;;18.27;12.38;;;16.60;99.90;;;;;;5063142;28;20056;-86
2023/08/26 01:44:30;;;;;;;17.90;12.88;;;16.60;99.90;;;;;;5048065;28;20040;-86
2023/08/26 01:46:56;;;;;;;16.65;12.05;;;16.60;99.90;;;;;;5054542;28;20041;-86
2023/08/26 01:49:23;;;;;;;15.15;11.73;;;16.50;99.90;;;;;;5053526;28;20053;-86
2023/08/26 01:51:49;;;;;;;15.65;11.80;;;16.50;99.90;;;;;;5036265;28;20080;-86
2023/08/26 01:54:15;;;;;;;15.07;11.93;;;16.50;99.90;;;;;;5071805;28;20145;-86
2023/08/26 01:56:41;;;;;;;15.15;10.60;;;16.50;99.90;;;;;;5056307;28;20068;-86
2023/08/26 01:59:06;;;;;;;15.45;10.32;;;16.50;99.90;;;;;;5033616;28;20843;-86
2023/08/26 02:01:33;;;;;;;15.40;10.85;;;16.40;99.90;;;;;;5047645;28;20037;-86
2023/08/26 02:04:00;;;;;;;13.93;10.30;;;16.40;99.90;;;;;;5056520;28;20044;-86
2023/08/26 02:06:26;;;;;;;14.65;11.30;;;16.40;99.90;;;;;;5056620;28;20044;-86
2023/08/26 02:08:54;;;;;;;13.57;10.25;;;16.40;99.90;;;;;;5056866;28;20396;-85
2023/08/26 02:11:21;;;;;;;12.23;10.23;;;16.30;99.90;;;;;;5063110;28;20493;-86
2023/08/26 02:13:46;;;;;;;14.57;9.80;;;16.30;99.90;;;;;;5036009;28;20132;-86
2023/08/26 02:16:12;;;;;;;11.32;9.55;;;16.30;99.90;;;;;;5056680;28;20459;-85
2023/08/26 02:18:38;;;;;;;13.65;10.20;;;16.20;99.90;;;;;;5036411;28;20041;-86
2023/08/26 02:21:04;;;;;;;13.50;9.60;;;16.30;99.90;;;;;;5052813;28;20039;-86
2023/08/26 02:23:30;;;;;;;16.20;10.93;;;16.20;99.90;;;;;;5066717;28;20040;-86
2023/08/26 02:25:55;;;;;;;13.07;9.65;;;16.20;99.90;;;;;;5050724;28;20052;-86
2023/08/26 02:28:21;;;;;;;13.60;9.40;;;16.20;99.90;;;;;;5057589;28;20044;-86
2023/08/26 02:30:47;;;;;;;13.43;9.85;;;16.20;99.90;;;;;;5052371;28;20037;-86
2023/08/26 02:33:13;;;;;;;12.98;9.93;;;16.20;99.90;;;;;;5045570;28;20119;-86
2023/08/26 02:35:44;;;;;;;15.38;9.98;;;16.20;99.90;;;;;;5048614;28;20045;-87
2023/08/26 02:38:10;;;;;;;13.45;9.90;;;16.10;99.90;;;;;;5041789;28;20049;-86
2023/08/26 02:40:36;;;;;;;11.00;9.23;;;16.20;99.90;;;;;;5059224;28;20110;-85
2023/08/26 02:43:01;;;;;;;15.25;9.95;;;16.10;99.90;;;;;;5054451;28;20492;-85
2023/08/26 02:45:27;;;;;;;13.32;9.90;;;16.20;99.90;;;;;;5036990;28;20083;-86
2023/08/26 02:47:53;;;;;;;13.23;10.02;;;16.10;99.90;;;;;;5052513;28;20080;-85
2023/08/26 02:50:18;;;;;;;15.55;10.20;;;16.20;99.90;;;;;;5035882;28;20377;-85
2023/08/26 02:52:44;;;;;;;13.27;10.00;;;16.20;99.90;;;;;;5048237;28;20454;-85
2023/08/26 02:55:10;;;;;;;13.63;9.70;;;16.20;99.90;;;;;;5033362;28;20528;-86
2023/08/26 02:57:36;;;;;;;15.35;9.70;;;16.20;99.90;;;;;;5053704;28;20760;-86
2023/08/26 03:00:04;;;;;;;15.88;9.60;;;16.20;99.90;;;;;;5066075;28;20077;-85
2023/08/26 03:02:30;;;;;;;16.58;9.45;;;16.10;99.90;;;;;;5051627;28;20138;-85
2023/08/26 03:04:56;;;;;;;16.95;9.70;;;16.10;99.90;;;;;;5035139;28;20072;-85
2023/08/26 03:07:21;;;;;;;15.75;9.50;;;16.10;99.90;;;;;;5040376;28;20037;-86
2023/08/26 03:09:47;;;;;;;11.52;9.88;;;16.10;99.90;;;;;;5068665;28;20041;-85
2023/08/26 03:12:13;;;;;;;13.00;10.20;;;16.10;99.90;;;;;;5038454;28;20045;-85
2023/08/26 03:14:39;;;;;;;12.10;9.70;;;16.10;99.90;;;;;;5036992;28;20040;-85
2023/08/26 03:17:04;;;;;;;14.25;9.73;;;16.10;99.90;;;;;;5043436;28;20052;-85
2023/08/26 03:19:31;;;;;;;11.27;9.60;;;16.00;99.90;;;;;;5040783;28;20048;-85
2023/08/26 03:21:57;;;;;;;15.43;10.23;;;16.00;99.90;;;;;;5044514;28;20048;-85
2023/08/26 03:24:22;;;;;;;15.23;10.43;;;16.00;99.90;;;;;;5060147;28;20131;-86
2023/08/26 03:26:48;;;;;;;12.10;9.50;;;16.00;99.90;;;;;;5059681;28;20080;-85
2023/08/26 03:29:14;;;;;;;15.07;9.68;;;15.90;99.90;;;;;;5043927;28;20040;-85
2023/08/26 03:31:43;;;;;;;12.98;9.60;;;15.90;99.90;;;;;;5057115;28;20043;-85
2023/08/26 03:34:08;;;;;;;11.40;9.73;;;15.90;99.90;;;;;;5062529;28;20362;-85
2023/08/26 03:36:34;;;;;;;14.65;9.15;;;15.90;99.90;;;;;;5034227;28;20041;-85
2023/08/26 03:39:00;;;;;;;14.55;9.57;;;15.90;99.90;;;;;;5053384;28;20047;-85
2023/08/26 03:41:26;;;;;;;13.70;9.82;;;15.90;99.90;;;;;;5048858;28;20444;-85
2023/08/26 03:43:52;;;;;;;18.48;10.50;;;15.90;99.90;;;;;;5046331;28;20037;-85
2023/08/26 03:46:18;;;;;;;13.57;9.90;;;15.90;99.90;;;;;;5042218;28;20464;-85
2023/08/26 03:48:44;;;;;;;12.07;9.57;;;15.90;99.90;;;;;;5061482;28;20079;-85
2023/08/26 03:51:10;;;;;;;15.13;9.23;;;15.80;99.90;;;;;;5071609;28;20044;-85
2023/08/26 03:53:36;;;;;;;13.60;9.85;;;15.80;99.90;;;;;;5050501;28;20095;-85
2023/08/26 03:56:01;;;;;;;15.45;9.93;;;15.80;99.90;;;;;;5056203;28;20040;-85
2023/08/26 03:58:27;;;;;;;13.40;9.93;;;15.80;99.90;;;;;;5071876;28;20460;-85
2023/08/26 04:01:06;;;;;;;11.55;9.13;;;15.60;99.90;;;;;;5059516;28;20033;-86
2023/08/26 04:03:33;;;;;;;13.10;9.15;;;15.60;99.90;;;;;;5049166;28;20083;-86
2023/08/26 04:06:03;;;;;;;13.00;9.25;;;15.50;99.90;;;;;;5054042;28;20385;-85
2023/08/26 04:08:30;;;;;;;11.15;8.02;;;15.50;99.90;;;;;;5057695;28;20045;-85
2023/08/26 04:11:00;;;;;;;8.43;6.03;;;15.40;99.90;;;;;;5040917;28;20127;-85
2023/08/26 04:13:28;;;;;;;14.43;7.68;;;15.30;99.90;;;;;;5044156;28;20460;-85
2023/08/26 04:15:58;;;;;;;8.43;7.47;;;15.30;99.90;;;;;;5034279;28;20052;-85
2023/08/26 04:18:24;;;;;;;10.27;7.57;;;15.30;99.90;;;;;;5047653;28;20066;-85
2023/08/26 04:20:52;;;;;;;12.13;8.23;;;15.30;99.90;;;;;;5053889;28;20044;-85
2023/08/26 04:23:18;;;;;;;10.40;7.93;;;15.30;99.90;;;;;;5070742;28;20446;-85
2023/08/26 04:25:43;;;;;;;15.70;8.93;;;15.20;99.90;;;;;;5047077;28;20124;-85
2023/08/26 04:28:11;;;;;;;13.82;8.27;;;15.20;99.90;;;;;;5055243;28;20130;-85
2023/08/26 04:30:37;;;;;;;14.10;9.15;;;15.20;99.90;;;;;;5035902;28;20098;-86
2023/08/26 04:33:04;;;;;;;13.38;9.30;;;15.10;99.90;;;;;;5064759;28;20040;-86
2023/08/26 04:35:30;;;;;;;12.10;8.85;;;15.10;99.90;;;;;;5044902;28;20096;-85
2023/08/26 04:37:56;;;;;;;12.43;8.55;;;15.00;99.90;;;;;;5034624;28;20040;-85
2023/08/26 04:40:22;;;;;;;12.90;8.45;;;15.00;99.90;;;;;;5039303;28;20051;-85
2023/08/26 04:42:48;;;;;;;12.90;8.45;;;15.00;99.90;;;;;;5063412;28;20115;-85
2023/08/26 04:45:16;;;;;;;12.15;8.43;;;15.00;99.90;;;;;;5050141;28;20052;-85
2023/08/26 04:47:42;;;;;;;10.65;7.93;;;15.00;99.90;;;;;;5062674;28;20511;-85
2023/08/26 04:50:09;;;;;;;14.00;7.88;;;15.00;99.90;;;;;;5036606;28;20049;-86
2023/08/26 04:52:35;;;;;;;10.68;8.07;;;15.00;99.90;;;;;;5047169;28;20045;-85
2023/08/26 04:55:01;;;;;;;10.13;7.63;;;15.00;99.90;;;;;;5050154;28;20040;-85
2023/08/26 04:57:26;;;;;;;8.30;6.70;;;15.00;99.90;;;;;;5066470;28;20049;-85
2023/08/26 04:59:52;;;;;;;8.48;6.57;;;14.90;99.90;;;;;;5055451;28;20044;-85
2023/08/26 05:02:18;;;;;;;11.38;8.27;;;14.90;99.90;;;;;;5038466;28;20040;-85
2023/08/26 05:04:46;;;;;;;9.65;7.50;;;14.90;99.90;;;;;;5047956;28;20064;-85
2023/08/26 05:07:12;;;;;;;9.30;7.95;;;14.90;99.90;;;;;;5035274;28;20173;-85
2023/08/26 05:09:38;;;;;;;10.25;8.35;;;14.90;99.90;;;;;;5038373;28;20468;-85
2023/08/26 05:12:04;;;;;;;12.02;8.27;;;15.00;99.90;;;;;;5059306;28;20037;-84
2023/08/26 05:14:30;;;;;;;13.50;9.20;;;15.00;99.90;;;;;;5056937;28;20091;-85
2023/08/26 05:16:55;;;;;;;13.85;9.13;;;15.00;99.90;;;;;;5047274;28;20080;-85
2023/08/26 05:19:21;;;;;;;12.30;9.13;;;15.00;99.90;;;;;;5059818;28;20044;-85
2023/08/26 05:21:47;;;;;;;14.13;9.82;;;15.10;99.90;;;;;;5040181;28;20079;-85
2023/08/26 05:24:12;;;;;;;12.07;9.45;;;15.10;99.90;;;;;;5055061;28;20033;-85
2023/08/26 05:26:38;;;;;;;15.93;9.98;;;15.10;99.90;;;;;;5073541;28;20057;-85
2023/08/26 05:29:04;;;;;;;13.98;9.23;;;15.20;99.90;;;;;;5070469;28;20045;-86
2023/08/26 05:31:31;;;;;;;16.98;10.20;;;15.20;99.90;;;;;;5048708;28;20056;-85
2023/08/26 05:33:56;;;;;;;15.52;10.35;;;15.20;99.90;;;;;;5060546;28;20400;-85
2023/08/26 05:36:23;;;;;;;15.63;10.75;;;15.20;99.90;;;;;;5046949;28;20056;-85
2023/08/26 05:38:49;;;;;;;16.13;10.73;;;15.30;99.90;;;;;;5045966;28;20037;-85
2023/08/26 05:41:16;;;;;;;14.63;10.50;;;15.30;99.90;;;;;;5044643;28;20041;-85
2023/08/26 05:43:44;;;;;;;12.65;11.15;;;15.30;99.90;;;;;;5060945;28;20122;-86
2023/08/26 05:46:10;;;;;;;19.02;11.52;;;15.40;99.90;;;;;;5042094;28;20044;-83
2023/08/26 05:48:35;;;;;;;15.85;11.50;;;15.40;99.90;;;;;;5047434;28;20177;-84
2023/08/26 05:51:01;;;;;;;16.30;11.05;;;15.50;99.90;;;;;;5065219;28;20114;-84
2023/08/26 05:53:28;;;;;;;15.77;11.90;;;15.50;99.90;;;;;;5051133;28;20051;-84
2023/08/26 05:55:54;;;;;;;16.38;11.32;;;15.50;99.90;;;;;;5063630;28;20488;-84
2023/08/26 05:58:20;;;;;;;14.60;11.75;;;15.50;99.90;;;;;;5050791;28;20067;-83
2023/08/26 06:00:48;;;;;;;17.10;11.70;;;15.60;99.90;;;;;;5056393;28;20036;-83
2023/08/26 06:03:13;;;;;;;16.63;11.70;;;15.60;99.90;;;;;;5037235;28;20037;-83
2023/08/26 06:05:39;;;;;;;19.30;12.25;;;15.60;99.90;;;;;;5036749;28;20506;-83
2023/08/26 06:08:09;;;;;;;16.95;12.02;;;15.60;99.90;;;;;;5051920;28;20044;-83
2023/08/26 06:10:35;;;;;;;17.85;12.10;;;15.60;99.90;;;;;;5031525;28;20171;-85
2023/08/26 06:13:01;;;;;;;15.13;11.82;;;15.60;99.90;;;;;;5038015;28;20072;-83
2023/08/26 06:15:27;;;;;;;17.02;13.57;;;15.60;99.90;;;;;;5044684;28;20068;-84
2023/08/26 06:17:53;;;;;;;16.42;12.70;;;15.60;99.90;;;;;;5044639;28;20381;-83
2023/08/26 06:20:19;;;;;;;15.57;13.48;;;15.70;99.90;;;;;;5064489;28;20071;-83
2023/08/26 06:22:47;;;;;;;15.32;12.85;;;15.70;99.90;;;;;;5036958;28;20068;-84
2023/08/26 06:25:13;;;;;;;18.52;13.23;;;15.70;99.90;;;;;;5066750;28;20185;-84
2023/08/26 06:27:39;;;;;;;19.10;13.52;;;15.70;99.90;;;;;;5059409;28;20188;-84
2023/08/26 06:30:05;;;;;;;17.52;12.80;;;15.70;99.90;;;;;;5043511;28;20060;-83
2023/08/26 06:32:31;;;;;;;19.10;13.30;;;15.70;99.90;;;;;;5059930;28;20485;-86
2023/08/26 06:34:56;;;;;;;19.95;13.52;;;15.70;99.90;;;;;;5035744;28;20041;-84
2023/08/26 06:37:22;;;;;;;16.60;13.20;;;15.80;99.90;;;;;;5052591;28;20556;-83
2023/08/26 06:39:48;;;;;;;22.80;13.77;;;15.80;99.90;;;;;;5049148;28;20045;-85
2023/08/26 06:42:14;;;;;;;20.08;14.65;;;15.80;99.90;;;;;;5039847;28;20085;-84
2023/08/26 06:44:40;;;;;;;23.38;14.88;;;15.80;99.90;;;;;;5055521;28;20044;-85
2023/08/26 06:47:08;;;;;;;18.45;14.52;;;15.80;99.90;;;;;;5054178;28;20067;-83
2023/08/26 06:49:34;;;;;;;17.90;14.80;;;15.80;99.90;;;;;;5056813;28;20045;-84
2023/08/26 06:52:00;;;;;;;19.17;15.07;;;15.80;99.90;;;;;;5060119;28;20041;-85
2023/08/26 06:54:28;;;;;;;18.98;14.68;;;15.90;99.90;;;;;;5046523;28;20044;-84
2023/08/26 06:56:54;;;;;;;22.52;15.55;;;15.90;99.90;;;;;;5043630;28;20037;-84
2023/08/26 06:59:22;;;;;;;20.15;14.52;;;15.90;99.90;;;;;;5059290;28;20047;-85
2023/08/26 07:01:48;;;;;;;20.88;15.20;;;15.90;99.90;;;;;;5037588;28;20128;-84
2023/08/26 07:04:16;;;;;;;21.08;15.38;;;15.90;99.90;;;;;;5038268;28;20469;-84
2023/08/26 07:06:42;;;;;;;22.10;16.08;;;16.00;99.90;;;;;;5059028;28;20124;-85
2023/08/26 07:09:10;;;;;;;22.13;15.32;;;16.00;99.90;;;;;;5041025;28;20116;-85
2023/08/26 07:11:36;;;;;;;19.60;15.63;;;16.00;99.90;;;;;;5057377;28;20094;-85
2023/08/26 07:14:01;;;;;;;19.05;14.98;;;16.10;99.90;;;;;;5044483;28;20049;-86
2023/08/26 07:16:28;;;;;;;24.13;18.20;;;16.10;99.90;;;;;;5051436;28;20051;-85
2023/08/26 07:18:54;;;;;;;27.63;17.73;;;16.00;99.90;;;;;;5051850;28;20069;-85
2023/08/26 07:21:20;;;;;;;24.63;18.55;;;16.00;99.90;;;;;;5041437;28;20450;-84
2023/08/26 07:23:45;;;;;;;28.40;19.05;;;16.00;99.90;;;;;;5041897;28;20094;-85
2023/08/26 07:26:11;;;;;;;25.67;18.60;;;16.10;99.90;;;;;;5039784;28;20110;-84
2023/08/26 07:28:37;;;;;;;24.95;18.13;;;16.20;99.90;;;;;;5049964;28;20101;-84
2023/08/26 07:31:04;;;;;;;27.00;20.63;;;16.20;99.90;;;;;;5049565;28;20040;-83
2023/08/26 07:33:31;;;;;;;28.15;20.35;;;16.20;99.90;;;;;;5041162;28;20053;-85
2023/08/26 07:36:07;;;;;;;25.23;20.30;;;16.30;99.90;;;;;;5035049;28;20049;-84
2023/08/26 07:38:34;;;;;;;28.83;19.70;;;16.20;99.90;;;;;;5034786;28;20041;-86
2023/08/26 07:41:00;;;;;;;29.00;20.70;;;16.20;99.90;;;;;;5051508;28;20036;-84
2023/08/26 07:43:26;;;;;;;27.13;20.15;;;16.20;99.90;;;;;;5034913;28;20052;-84
2023/08/26 07:45:51;;;;;;;32.83;21.05;;;16.20;99.90;;;;;;5034962;28;20037;-84
2023/08/26 07:48:17;;;;;;;26.58;21.42;;;16.30;99.90;;;;;;5056850;28;20041;-84
2023/08/26 07:50:43;;;;;;;28.10;22.10;;;16.20;99.90;;;;;;5043210;28;20044;-84
2023/08/26 07:53:09;;;;;;;27.15;21.02;;;16.30;99.90;;;;;;5033931;28;20544;-84
2023/08/26 07:55:35;;;;;;;28.63;21.65;;;16.30;99.90;;;;;;5050805;28;20049;-84
2023/08/26 07:58:01;;;;;;;26.30;21.88;;;16.30;99.90;;;;;;5050573;28;20166;-83
2023/08/26 08:00:27;;;;;;;31.73;22.88;;;16.40;99.90;;;;;;5050507;28;20045;-84
2023/08/26 08:02:55;;;;;;;25.95;21.27;;;16.40;99.90;;;;;;5034068;28;20040;-83
2023/08/26 08:05:21;;;;;;;28.55;21.00;;;16.40;99.90;;;;;;5031678;28;20037;-84
2023/08/26 08:07:47;;;;;;;27.65;21.65;;;16.40;99.90;;;;;;5046017;28;20064;-84
2023/08/26 08:10:13;;;;;;;25.45;22.00;;;16.40;99.90;;;;;;5034035;28;20079;-83
2023/08/26 08:12:39;;;;;;;25.40;21.25;;;16.40;99.90;;;;;;5050627;28;20055;-84
2023/08/26 08:15:06;;;;;;;24.80;20.90;;;16.40;99.90;;;;;;5049093;28;20556;-81
2023/08/26 08:17:32;;;;;;;24.77;19.90;;;16.40;99.90;;;;;;5048491;28;20041;-84
2023/08/26 08:19:58;;;;;;;24.10;20.33;;;16.30;99.90;;;;;;5065036;28;20079;-84
2023/08/26 08:22:39;;;;;;;29.08;21.27;;;16.30;99.90;;;;;;5043643;28;20045;-84
2023/08/26 08:25:06;;;;;;;26.53;20.57;;;16.30;99.90;;;;;;5031160;28;20497;-85
2023/08/26 08:27:32;;;;;;;28.08;21.10;;;16.50;99.90;;;;;;5051439;28;20296;-84
2023/08/26 08:29:59;;;;;;;25.65;21.25;;;16.70;99.90;;;;;;5036644;28;20044;-83
2023/08/26 08:32:25;;;;;;;26.63;21.33;;;16.80;99.90;;;;;;5047496;28;20472;-83
2023/08/26 08:34:51;;;;;;;27.33;20.23;;;16.90;99.90;;;;;;5052305;28;20549;-83
2023/08/26 08:37:16;;;;;;;25.98;21.27;;;16.90;99.90;;;;;;5042946;28;20045;-84
2023/08/26 08:39:42;;;;;;;22.70;18.95;;;16.90;99.90;;;;;;5034066;28;20060;-82
2023/08/26 08:42:09;;;;;;;25.08;19.35;;;17.00;99.90;;;;;;5033273;28;20037;-83
2023/08/26 08:44:43;;;;;;;25.20;19.92;;;17.10;99.90;;;;;;5040812;28;20033;-85
2023/08/26 08:47:10;;;;;;;22.60;19.88;;;17.20;99.90;;;;;;5042979;28;20040;-84
2023/08/26 08:49:37;;;;;;;22.60;19.75;;;17.30;99.90;;;;;;5035266;28;20132;-83
2023/08/26 08:52:07;;;;;;;25.45;19.60;;;17.30;99.90;;;;;;5046016;28;20101;-83
2023/08/26 08:54:34;;;;;;;21.85;18.40;;;17.30;99.90;;;;;;5034013;28;20374;-83
2023/08/26 08:57:01;;;;;;;20.92;18.20;;;17.40;99.90;;;;;;5037420;28;20497;-83
2023/08/26 08:59:32;;;;;;;20.45;18.10;;;17.40;99.90;;;;;;5042141;28;20090;-83
2023/08/26 09:01:59;;;;;;;21.92;17.05;;;17.50;99.90;;;;;;5049335;28;20045;-83
2023/08/26 09:04:25;;;;;;;22.15;18.33;;;17.60;99.90;;;;;;5067487;28;20549;-85
2023/08/26 09:06:52;;;;;;;23.42;17.60;;;17.70;99.90;;;;;;5042415;28;20048;-83
2023/08/26 09:09:19;;;;;;;18.95;16.83;;;17.60;99.90;;;;;;5034547;28;20045;-83
2023/08/26 09:11:49;;;;;;;18.05;14.95;;;17.70;99.90;;;;;;5062272;28;20515;-83
2023/08/26 09:14:15;;;;;;;19.02;15.70;;;17.70;99.90;;;;;;5049228;28;20056;-83
2023/08/26 09:16:42;;;;;;;17.70;15.95;;;17.60;99.90;;;;;;5050020;28;20041;-84
2023/08/26 09:19:10;;;;;;;17.10;15.30;;;17.60;99.90;;;;;;5049840;28;20033;-84
2023/08/26 09:21:46;;;;;;;20.23;17.17;;;17.80;99.90;;;;;;5033252;28;20033;-83
2023/08/26 09:24:16;;;;;;;18.73;16.73;;;18.00;99.90;;;;;;5041763;28;20395;-85
2023/08/26 09:26:58;;;;;;;19.80;16.00;;;18.10;99.90;;;;;;5046230;28;20515;-84
2023/08/26 09:29:25;;;;;;;20.17;15.85;;;18.30;99.90;;;;;;5053609;28;20052;-84
2023/08/26 09:31:52;;;;;;;17.60;15.63;;;18.30;99.90;;;;;;5035243;28;20045;-83
2023/08/26 09:34:32;;;;;;;17.98;15.95;;;18.50;99.90;;;;;;5041967;28;20047;-84
2023/08/26 09:37:03;;;;;;;15.98;14.35;;;18.60;99.90;;;;;;5044877;28;20045;-82
2023/08/26 09:39:29;;;;;;;16.52;14.70;;;18.50;99.90;;;;;;5052631;28;20044;-84
2023/08/26 09:41:56;;;;;;;17.35;13.70;;;18.50;99.90;;;;;;5033639;28;20064;-84
2023/08/26 09:44:23;;;;;;;17.73;13.43;;;18.50;99.90;;;;;;5060314;28;20048;-83
2023/08/26 09:46:49;;;;;;;15.38;13.73;;;18.50;99.90;;;;;;5052571;28;20037;-84
2023/08/26 09:49:17;;;;;;;16.65;13.70;;;18.50;99.90;;;;;;5053243;28;20091;-84
2023/08/26 09:51:47;;;;;;;16.50;12.57;;;18.60;99.90;;;;;;5037490;28;20048;-82
2023/08/26 09:54:21;;;;;;;16.27;13.80;;;18.70;99.90;;;;;;5036127;28;20040;-82
2023/08/26 09:56:48;;;;;;;14.60;13.20;;;18.80;99.90;;;;;;5059437;28;20044;-83
2023/08/26 09:59:15;;;;;;;15.93;13.25;;;18.80;99.90;;;;;;5040113;28;20127;-82
2023/08/26 10:01:42;;;;;;;15.48;12.90;;;18.60;99.90;;;;;;5040854;28;20052;-83
2023/08/26 10:04:13;;;;;;;16.77;12.23;;;18.50;99.90;;;;;;5053059;28;20044;-85
2023/08/26 10:06:46;;;;;;;14.63;11.90;;;18.50;99.90;;;;;;5054851;28;20434;-83
2023/08/26 10:09:19;;;;;;;11.27;10.27;;;18.50;99.90;;;;;;5052968;28;20111;-84
2023/08/26 10:11:51;;;;;;;12.90;10.57;;;18.50;99.90;;;;;;5039170;28;20123;-84
2023/08/26 10:14:17;;;;;;;;;;;18.50;99.90;;;;;;5055288;28;20135;-83
2023/08/26 10:16:45;;;;;;;16.23;11.18;;;18.70;99.90;;;;;;5065323;28;19928;-83
2023/08/26 10:19:13;;;;;;;16.08;10.30;;;19.00;99.90;;;;;;5027648;28;20439;-84
2023/08/26 10:21:39;;;;;;;13.65;10.82;;;19.20;99.90;;;;;;5036027;28;20441;-84
2023/08/26 10:24:06;;;;;;;12.00;10.20;;;19.20;99.90;;;;;;5043966;28;20048;-83
2023/08/26 10:26:33;;;;;;;13.45;8.80;;;19.20;99.90;;;;;;5062280;28;20361;-84
2023/08/26 10:29:00;;;;;;;12.00;8.90;;;19.20;99.90;;;;;;5046441;28;20076;-83
2023/08/26 10:31:36;;;;;;;12.20;8.60;;;19.30;99.90;;;;;;5038414;28;20119;-83
2023/08/26 10:34:08;;;;;;;14.23;8.68;;;19.50;99.90;;;;;;5038250;28;20492;-83
2023/08/26 10:36:38;;;;;;;10.63;7.35;;;19.40;99.90;;;;;;5041366;28;20489;-82
2023/08/26 10:39:18;;;;;;;8.60;6.43;;;19.30;99.90;;;;;;5055647;28;20080;-83
2023/08/26 10:42:10;;;;;;;10.25;6.40;;;19.20;99.90;;;;;;5055484;28;20076;-82
2023/08/26 10:44:37;;;;;;;;;;;19.10;99.90;;;;;;5052463;28;20045;-83
2023/08/26 10:47:02;;;;;;;7.47;4.57;;;19.00;99.90;;;;;;5034856;28;20400;-83
2023/08/26 10:49:29;;;;;;;7.75;4.05;;;19.00;99.90;;;;;;5053297;28;20064;-83
2023/08/26 10:52:30;;;;;;;5.45;3.80;;;18.90;99.90;;;;;;5035656;28;20392;-82
2023/08/26 10:54:56;;;;;;;9.27;4.03;;;18.90;99.90;;;;;;5020746;28;20440;-83
2023/08/26 10:57:22;;;;;;;5.47;3.45;;;18.80;99.90;;;;;;5051977;28;20044;-82
2023/08/26 10:59:47;;;;;;;5.53;3.28;;;18.90;99.90;;;;;;5041526;28;20480;-83
2023/08/26 11:02:13;;;;;;;5.80;3.40;;;19.20;99.90;;;;;;5054117;28;20147;-82
2023/08/26 11:04:46;;;;;;;5.45;3.08;;;19.50;99.90;;;;;;5052170;28;20395;-83
2023/08/26 11:07:18;;;;;;;5.60;3.05;;;19.70;99.90;;;;;;5018525;28;20037;-82
2023/08/26 11:09:45;;;;;;;5.95;2.40;;;19.80;99.90;;;;;;5035063;28;20153;-83
2023/08/26 11:12:28;;;;;;;4.80;2.38;;;20.10;99.90;;;;;;5052484;28;20104;-83
2023/08/26 11:15:03;;;;;;;4.72;2.30;;;20.20;99.90;;;;;;5038374;28;20044;-82
2023/08/26 11:17:28;;;;;;;4.43;2.50;;;20.30;99.90;;;;;;5051936;28;20390;-83
2023/08/26 11:19:56;;;;;;;5.40;2.88;;;20.30;99.90;;;;;;5050623;28;20049;-82
2023/08/26 11:22:26;;;;;;;7.22;2.80;;;20.50;99.90;;;;;;5050826;28;20097;-82
2023/08/26 11:24:52;;;;;;;3.65;2.35;;;20.60;99.90;;;;;;5034062;28;20048;-82
2023/08/26 11:27:18;;;;;;;6.60;2.45;;;20.60;99.90;;;;;;5054942;28;20392;-83
2023/08/26 11:29:44;;;;;;;8.35;2.58;;;20.60;99.90;;;;;;5066600;28;20037;-82
2023/08/26 11:32:10;;;;;;;2.38;2.03;;;20.40;99.90;;;;;;5037558;28;20434;-82
2023/08/26 11:34:35;;;;;;;3.38;2.30;;;20.30;99.90;;;;;;5018411;28;20052;-82
2023/08/26 11:37:02;;;;;;;3.88;2.80;;;20.40;99.90;;;;;;5040938;28;20036;-81
2023/08/26 11:39:33;;;;;;;4.22;2.15;;;20.50;99.90;;;;;;5059934;28;20499;-82
2023/08/26 11:41:59;;;;;;;4.55;2.08;;;20.40;99.90;;;;;;5052465;28;20481;-82
2023/08/26 11:44:26;;;;;;;9.07;2.25;;;20.30;99.90;;;;;;5050139;28;20037;-82
2023/08/26 11:46:53;;;;;;;4.15;2.47;;;20.10;99.90;;;;;;5056423;28;20032;-82
2023/08/26 11:49:23;;;;;;;4.60;2.20;;;19.90;99.90;;;;;;5056491;28;20399;-82
2023/08/26 11:51:49;;;;;;;3.13;2.42;;;19.80;99.90;;;;;;5030802;28;20035;-81
2023/08/26 11:54:25;;;;;;;2.15;1.85;;;19.90;99.90;;;;;;5039517;28;20567;-83
2023/08/26 11:56:51;;;;;;;3.60;2.25;;;20.00;99.90;;;;;;5017843;28;20047;-83
2023/08/26 11:59:21;;;;;;;4.00;2.00;;;20.00;99.90;;;;;;5047217;28;20139;-82
2023/08/26 12:01:47;;;;;;;5.50;2.20;;;20.00;99.90;;;;;;5034347;28;20055;-82
2023/08/26 12:04:15;;;;;;;3.30;1.95;;;20.00;99.90;;;;;;5050338;28;20036;-83
2023/08/26 12:06:42;;;;;;;4.32;2.25;;;20.00;99.90;;;;;;5049874;28;20080;-83
2023/08/26 12:09:08;;;;;;;3.67;2.03;;;20.10;99.90;;;;;;5017180;28;20091;-82
2023/08/26 12:11:37;;;;;;;2.22;1.65;;;20.20;99.90;;;;;;5052036;28;20045;-83
2023/08/26 12:14:17;;;;;;;3.92;2.15;;;20.30;99.90;;;;;;5035849;28;20098;-81
2023/08/26 12:16:42;;;;;;;2.90;2.00;;;20.60;99.90;;;;;;5050193;28;20049;-82
2023/08/26 12:19:19;;;;;;;2.53;1.70;;;20.90;99.90;;;;;;5055268;28;20037;-82
2023/08/26 12:21:50;;;;;;;3.50;1.70;;;21.00;99.90;;;;;;5050395;28;20033;-82
2023/08/26 12:24:21;;;;;;;2.85;1.63;;;21.10;99.90;;;;;;5050301;28;20037;-83
2023/08/26 12:26:47;;;;;;;2.00;1.80;;;21.20;99.90;;;;;;5055288;28;20070;-82
2023/08/26 12:29:13;;;;;;;3.42;1.65;;;21.30;99.90;;;;;;5034093;28;20485;-83
2023/08/26 12:31:39;;;;;;;2.65;1.50;;;21.40;99.90;;;;;;5050337;28;20041;-83
2023/08/26 12:34:04;;;;;;;2.75;1.73;;;21.50;99.90;;;;;;5041362;28;20495;-81